sensor_id;sensor_type;location;lat;lon;timestamp;temperature;humidity
27164;DHT22;14685;50.618;7.024;2022-09-01T00:01:36;22.30;93.90
27164;DHT22;14685;50.618;7.024;2022-09-01T00:04:05;22.20;93.90
27164;DHT22;14685;50.618;7.024;2022-09-01T00:06:35;22.10;94.00
27164;DHT22;14685;50.618;7.024;2022-09-01T00:09:05;22.10;94.00
27164;DHT22;14685;50.618;7.024;2022-09-01T00:11:32;22.10;94.10
27164;DHT22;14685;50.618;7.024;2022-09-01T00:14:00;22.10;94.50
27164;DHT22;14685;50.618;7.024;2022-09-01T00:16:28;22.00;94.50
27164;DHT22;14685;50.618;7.024;2022-09-01T00:18:56;22.10;94.50
27164;DHT22;14685;50.618;7.024;2022-09-01T00:21:29;22.00;94.40
27164;DHT22;14685;50.618;7.024;2022-09-01T00:23:56;22.00;94.50
27164;DHT22;14685;50.618;7.024;2022-09-01T00:26:23;21.90;94.70
27164;DHT22;14685;50.618;7.024;2022-09-01T00:28:50;21.90;94.80
27164;DHT22;14685;50.618;7.024;2022-09-01T00:31:17;21.80;94.70
27164;DHT22;14685;50.618;7.024;2022-09-01T00:33:46;21.70;94.70
27164;DHT22;14685;50.618;7.024;2022-09-01T00:38:41;21.60;94.60
27164;DHT22;14685;50.618;7.024;2022-09-01T00:41:09;21.50;95.00
27164;DHT22;14685;50.618;7.024;2022-09-01T00:43:42;21.50;95.00
27164;DHT22;14685;50.618;7.024;2022-09-01T00:48:50;21.50;95.20
27164;DHT22;14685;50.618;7.024;2022-09-01T00:51:18;21.40;95.30
27164;DHT22;14685;50.618;7.024;2022-09-01T00:53:46;21.40;95.30
27164;DHT22;14685;50.618;7.024;2022-09-01T00:56:13;21.40;95.50
27164;DHT22;14685;50.618;7.024;2022-09-01T00:58:41;21.50;95.50
27164;DHT22;14685;50.618;7.024;2022-09-01T01:01:10;21.40;95.40
27164;DHT22;14685;50.618;7.024;2022-09-01T01:03:38;21.40;95.50
27164;DHT22;14685;50.618;7.024;2022-09-01T01:06:08;21.30;95.40
27164;DHT22;14685;50.618;7.024;2022-09-01T01:08:37;21.40;95.60
27164;DHT22;14685;50.618;7.024;2022-09-01T01:11:09;21.30;95.60
27164;DHT22;14685;50.618;7.024;2022-09-01T01:16:15;21.40;95.80
27164;DHT22;14685;50.618;7.024;2022-09-01T01:18:42;21.20;95.70
27164;DHT22;14685;50.618;7.024;2022-09-01T01:21:25;21.30;95.80
27164;DHT22;14685;50.618;7.024;2022-09-01T01:24:28;21.30;95.90
27164;DHT22;14685;50.618;7.024;2022-09-01T01:26:57;21.20;95.90
27164;DHT22;14685;50.618;7.024;2022-09-01T01:29:30;21.20;95.90
27164;DHT22;14685;50.618;7.024;2022-09-01T01:31:58;21.20;96.10
27164;DHT22;14685;50.618;7.024;2022-09-01T01:34:26;21.20;96.20
27164;DHT22;14685;50.618;7.024;2022-09-01T01:36:53;21.10;96.20
27164;DHT22;14685;50.618;7.024;2022-09-01T01:39:25;21.00;96.20
27164;DHT22;14685;50.618;7.024;2022-09-01T01:41:55;21.10;96.20
27164;DHT22;14685;50.618;7.024;2022-09-01T01:44:25;21.10;96.20
27164;DHT22;14685;50.618;7.024;2022-09-01T01:46:55;21.10;96.30
27164;DHT22;14685;50.618;7.024;2022-09-01T01:49:25;21.00;96.20
27164;DHT22;14685;50.618;7.024;2022-09-01T01:51:53;21.00;95.50
27164;DHT22;14685;50.618;7.024;2022-09-01T01:54:24;20.90;95.40
27164;DHT22;14685;50.618;7.024;2022-09-01T01:57:00;20.70;95.80
27164;DHT22;14685;50.618;7.024;2022-09-01T01:59:30;20.70;95.60
27164;DHT22;14685;50.618;7.024;2022-09-01T02:01:58;20.60;95.80
27164;DHT22;14685;50.618;7.024;2022-09-01T02:04:29;20.50;95.80
27164;DHT22;14685;50.618;7.024;2022-09-01T02:06:59;20.40;96.00
27164;DHT22;14685;50.618;7.024;2022-09-01T02:11:53;20.30;96.00
27164;DHT22;14685;50.618;7.024;2022-09-01T02:14:23;20.20;96.30
27164;DHT22;14685;50.618;7.024;2022-09-01T02:16:49;20.20;96.40
27164;DHT22;14685;50.618;7.024;2022-09-01T02:19:17;20.10;96.60
27164;DHT22;14685;50.618;7.024;2022-09-01T02:21:46;20.10;96.50
27164;DHT22;14685;50.618;7.024;2022-09-01T02:24:19;20.10;96.60
27164;DHT22;14685;50.618;7.024;2022-09-01T02:26:47;20.00;96.70
27164;DHT22;14685;50.618;7.024;2022-09-01T02:29:20;20.10;96.80
27164;DHT22;14685;50.618;7.024;2022-09-01T02:31:49;19.90;96.80
27164;DHT22;14685;50.618;7.024;2022-09-01T02:34:19;19.90;96.90
27164;DHT22;14685;50.618;7.024;2022-09-01T02:36:48;19.90;97.30
27164;DHT22;14685;50.618;7.024;2022-09-01T02:39:17;19.90;97.10
27164;DHT22;14685;50.618;7.024;2022-09-01T02:41:45;19.80;97.00
27164;DHT22;14685;50.618;7.024;2022-09-01T02:44:12;19.80;97.10
27164;DHT22;14685;50.618;7.024;2022-09-01T02:46:42;19.70;97.20
27164;DHT22;14685;50.618;7.024;2022-09-01T02:49:12;19.80;97.50
27164;DHT22;14685;50.618;7.024;2022-09-01T02:51:45;19.70;97.40
27164;DHT22;14685;50.618;7.024;2022-09-01T02:54:13;19.70;97.50
27164;DHT22;14685;50.618;7.024;2022-09-01T02:56:44;19.70;97.40
27164;DHT22;14685;50.618;7.024;2022-09-01T02:59:14;19.70;97.40
27164;DHT22;14685;50.618;7.024;2022-09-01T03:01:42;19.60;97.30
27164;DHT22;14685;50.618;7.024;2022-09-01T03:04:11;19.70;97.40
27164;DHT22;14685;50.618;7.024;2022-09-01T03:06:39;19.60;97.60
27164;DHT22;14685;50.618;7.024;2022-09-01T03:09:12;19.60;97.60
27164;DHT22;14685;50.618;7.024;2022-09-01T03:11:43;19.50;97.60
27164;DHT22;14685;50.618;7.024;2022-09-01T03:14:10;19.50;97.70
27164;DHT22;14685;50.618;7.024;2022-09-01T03:16:38;19.50;97.70
27164;DHT22;14685;50.618;7.024;2022-09-01T03:19:06;19.50;97.80
27164;DHT22;14685;50.618;7.024;2022-09-01T03:21:36;19.40;97.80
27164;DHT22;14685;50.618;7.024;2022-09-01T03:24:06;19.50;97.70
27164;DHT22;14685;50.618;7.024;2022-09-01T03:26:35;19.50;97.70
27164;DHT22;14685;50.618;7.024;2022-09-01T03:29:03;19.40;97.70
27164;DHT22;14685;50.618;7.024;2022-09-01T03:31:30;19.40;97.50
27164;DHT22;14685;50.618;7.024;2022-09-01T03:33:58;19.40;97.50
27164;DHT22;14685;50.618;7.024;2022-09-01T03:36:28;19.30;97.40
27164;DHT22;14685;50.618;7.024;2022-09-01T03:38:56;19.30;97.40
27164;DHT22;14685;50.618;7.024;2022-09-01T03:41:25;19.20;97.40
27164;DHT22;14685;50.618;7.024;2022-09-01T03:43:54;19.20;97.60
27164;DHT22;14685;50.618;7.024;2022-09-01T03:46:22;19.10;97.60
27164;DHT22;14685;50.618;7.024;2022-09-01T03:48:54;19.10;97.70
27164;DHT22;14685;50.618;7.024;2022-09-01T03:51:22;19.00;97.70
27164;DHT22;14685;50.618;7.024;2022-09-01T03:53:51;18.80;97.70
27164;DHT22;14685;50.618;7.024;2022-09-01T03:56:24;19.00;97.90
27164;DHT22;14685;50.618;7.024;2022-09-01T03:58:55;18.90;98.10
27164;DHT22;14685;50.618;7.024;2022-09-01T04:01:24;19.00;98.20
27164;DHT22;14685;50.618;7.024;2022-09-01T04:03:51;18.90;98.30
27164;DHT22;14685;50.618;7.024;2022-09-01T04:06:20;19.00;98.50
27164;DHT22;14685;50.618;7.024;2022-09-01T04:08:50;18.90;98.40
27164;DHT22;14685;50.618;7.024;2022-09-01T04:11:23;18.90;98.40
27164;DHT22;14685;50.618;7.024;2022-09-01T04:13:51;18.90;98.70
27164;DHT22;14685;50.618;7.024;2022-09-01T04:16:22;18.90;98.90
27164;DHT22;14685;50.618;7.024;2022-09-01T04:19:07;18.90;98.10
27164;DHT22;14685;50.618;7.024;2022-09-01T04:21:47;18.80;97.80
27164;DHT22;14685;50.618;7.024;2022-09-01T04:24:16;18.80;97.80
27164;DHT22;14685;50.618;7.024;2022-09-01T04:26:46;18.70;97.90
27164;DHT22;14685;50.618;7.024;2022-09-01T04:29:15;18.70;97.90
27164;DHT22;14685;50.618;7.024;2022-09-01T04:31:44;18.60;98.00
27164;DHT22;14685;50.618;7.024;2022-09-01T04:34:14;18.60;98.10
27164;DHT22;14685;50.618;7.024;2022-09-01T04:36:43;18.60;98.10
27164;DHT22;14685;50.618;7.024;2022-09-01T04:39:11;18.50;98.20
27164;DHT22;14685;50.618;7.024;2022-09-01T04:41:43;18.70;98.30
27164;DHT22;14685;50.618;7.024;2022-09-01T04:44:17;18.50;98.20
27164;DHT22;14685;50.618;7.024;2022-09-01T04:46:46;18.60;98.40
27164;DHT22;14685;50.618;7.024;2022-09-01T04:49:14;18.60;99.50
27164;DHT22;14685;50.618;7.024;2022-09-01T04:51:47;18.60;99.90
27164;DHT22;14685;50.618;7.024;2022-09-01T04:54:19;18.50;99.90
27164;DHT22;14685;50.618;7.024;2022-09-01T04:56:48;18.40;99.80
27164;DHT22;14685;50.618;7.024;2022-09-01T04:59:18;18.50;99.90
27164;DHT22;14685;50.618;7.024;2022-09-01T05:01:48;18.50;99.90
27164;DHT22;14685;50.618;7.024;2022-09-01T05:04:21;18.60;99.90
27164;DHT22;14685;50.618;7.024;2022-09-01T05:06:55;18.50;99.90
27164;DHT22;14685;50.618;7.024;2022-09-01T05:09:28;18.40;99.90
27164;DHT22;14685;50.618;7.024;2022-09-01T05:11:56;18.40;99.00
27164;DHT22;14685;50.618;7.024;2022-09-01T05:14:24;18.10;99.20
27164;DHT22;14685;50.618;7.024;2022-09-01T05:16:56;18.30;99.40
27164;DHT22;14685;50.618;7.024;2022-09-01T05:19:24;18.30;99.90
27164;DHT22;14685;50.618;7.024;2022-09-01T05:21:54;18.40;99.90
27164;DHT22;14685;50.618;7.024;2022-09-01T05:26:56;18.30;99.60
27164;DHT22;14685;50.618;7.024;2022-09-01T05:29:26;18.20;99.90
27164;DHT22;14685;50.618;7.024;2022-09-01T05:31:54;18.20;99.90
27164;DHT22;14685;50.618;7.024;2022-09-01T05:34:23;18.20;99.90
27164;DHT22;14685;50.618;7.024;2022-09-01T05:36:57;18.20;99.90
27164;DHT22;14685;50.618;7.024;2022-09-01T05:39:26;18.20;99.90
27164;DHT22;14685;50.618;7.024;2022-09-01T05:41:52;18.10;99.90
27164;DHT22;14685;50.618;7.024;2022-09-01T05:44:20;18.10;99.90
27164;DHT22;14685;50.618;7.024;2022-09-01T05:46:50;18.10;99.90
27164;DHT22;14685;50.618;7.024;2022-09-01T05:49:19;18.20;99.90
27164;DHT22;14685;50.618;7.024;2022-09-01T05:51:48;18.20;99.90
27164;DHT22;14685;50.618;7.024;2022-09-01T05:56:54;18.10;99.90
27164;DHT22;14685;50.618;7.024;2022-09-01T05:59:43;18.10;99.90
27164;DHT22;14685;50.618;7.024;2022-09-01T06:02:13;18.20;99.90
27164;DHT22;14685;50.618;7.024;2022-09-01T06:04:40;18.30;99.90
27164;DHT22;14685;50.618;7.024;2022-09-01T06:07:14;18.40;99.90
27164;DHT22;14685;50.618;7.024;2022-09-01T06:09:47;18.50;99.90
27164;DHT22;14685;50.618;7.024;2022-09-01T06:12:15;18.60;99.90
27164;DHT22;14685;50.618;7.024;2022-09-01T06:14:50;18.60;99.90
27164;DHT22;14685;50.618;7.024;2022-09-01T06:17:22;18.70;99.90
27164;DHT22;14685;50.618;7.024;2022-09-01T06:19:52;18.80;99.90
27164;DHT22;14685;50.618;7.024;2022-09-01T06:22:22;18.80;99.90
27164;DHT22;14685;50.618;7.024;2022-09-01T06:24:50;18.90;99.90
27164;DHT22;14685;50.618;7.024;2022-09-01T06:27:26;19.00;99.90
27164;DHT22;14685;50.618;7.024;2022-09-01T06:29:53;19.10;99.90
27164;DHT22;14685;50.618;7.024;2022-09-01T06:32:24;19.30;99.90
27164;DHT22;14685;50.618;7.024;2022-09-01T06:34:54;19.40;99.90
27164;DHT22;14685;50.618;7.024;2022-09-01T06:37:24;19.60;99.90
27164;DHT22;14685;50.618;7.024;2022-09-01T06:39:52;19.80;99.90
27164;DHT22;14685;50.618;7.024;2022-09-01T06:42:19;19.90;99.90
27164;DHT22;14685;50.618;7.024;2022-09-01T06:44:48;20.10;99.90
27164;DHT22;14685;50.618;7.024;2022-09-01T06:47:15;20.30;99.90
27164;DHT22;14685;50.618;7.024;2022-09-01T06:49:42;20.40;99.90
27164;DHT22;14685;50.618;7.024;2022-09-01T06:52:09;20.60;99.90
27164;DHT22;14685;50.618;7.024;2022-09-01T06:54:39;20.70;99.90
27164;DHT22;14685;50.618;7.024;2022-09-01T06:57:09;20.90;99.70
27164;DHT22;14685;50.618;7.024;2022-09-01T06:59:56;21.10;99.90
27164;DHT22;14685;50.618;7.024;2022-09-01T07:02:23;21.30;99.10
27164;DHT22;14685;50.618;7.024;2022-09-01T07:04:53;21.40;98.60
27164;DHT22;14685;50.618;7.024;2022-09-01T07:07:20;21.50;98.60
27164;DHT22;14685;50.618;7.024;2022-09-01T07:10:08;21.60;98.30
27164;DHT22;14685;50.618;7.024;2022-09-01T07:12:57;21.80;98.50
27164;DHT22;14685;50.618;7.024;2022-09-01T07:15:36;22.00;97.70
27164;DHT22;14685;50.618;7.024;2022-09-01T07:18:25;22.10;97.50
27164;DHT22;14685;50.618;7.024;2022-09-01T07:20:53;22.30;97.20
27164;DHT22;14685;50.618;7.024;2022-09-01T07:23:40;22.50;96.70
27164;DHT22;14685;50.618;7.024;2022-09-01T07:26:29;22.60;96.60
27164;DHT22;14685;50.618;7.024;2022-09-01T07:28:57;22.80;96.20
27164;DHT22;14685;50.618;7.024;2022-09-01T07:31:38;22.90;95.90
27164;DHT22;14685;50.618;7.024;2022-09-01T07:34:27;23.20;95.80
27164;DHT22;14685;50.618;7.024;2022-09-01T07:37:13;23.30;95.20
27164;DHT22;14685;50.618;7.024;2022-09-01T07:40:00;23.50;94.60
27164;DHT22;14685;50.618;7.024;2022-09-01T07:42:52;23.80;94.30
27164;DHT22;14685;50.618;7.024;2022-09-01T07:45:35;24.00;94.40
27164;DHT22;14685;50.618;7.024;2022-09-01T07:48:13;24.20;94.00
27164;DHT22;14685;50.618;7.024;2022-09-01T07:51:04;24.40;94.20
27164;DHT22;14685;50.618;7.024;2022-09-01T07:53:52;24.60;93.30
27164;DHT22;14685;50.618;7.024;2022-09-01T07:56:20;24.70;92.30
27164;DHT22;14685;50.618;7.024;2022-09-01T07:58:49;24.70;91.70
27164;DHT22;14685;50.618;7.024;2022-09-01T08:01:19;24.80;91.80
27164;DHT22;14685;50.618;7.024;2022-09-01T08:03:49;24.90;91.10
27164;DHT22;14685;50.618;7.024;2022-09-01T08:06:18;25.00;91.50
27164;DHT22;14685;50.618;7.024;2022-09-01T08:08:48;25.10;91.70
27164;DHT22;14685;50.618;7.024;2022-09-01T08:11:17;25.20;91.00
27164;DHT22;14685;50.618;7.024;2022-09-01T08:14:05;25.40;91.30
27164;DHT22;14685;50.618;7.024;2022-09-01T08:16:32;25.60;90.90
27164;DHT22;14685;50.618;7.024;2022-09-01T08:19:17;25.70;90.40
27164;DHT22;14685;50.618;7.024;2022-09-01T08:21:44;25.80;90.00
27164;DHT22;14685;50.618;7.024;2022-09-01T08:24:11;25.90;90.00
27164;DHT22;14685;50.618;7.024;2022-09-01T08:26:38;26.00;89.80
27164;DHT22;14685;50.618;7.024;2022-09-01T08:29:05;26.20;90.10
27164;DHT22;14685;50.618;7.024;2022-09-01T08:31:32;26.20;88.50
27164;DHT22;14685;50.618;7.024;2022-09-01T08:33:59;26.40;88.20
27164;DHT22;14685;50.618;7.024;2022-09-01T08:36:26;26.60;87.70
27164;DHT22;14685;50.618;7.024;2022-09-01T08:38:53;26.50;88.20
27164;DHT22;14685;50.618;7.024;2022-09-01T08:41:45;26.50;87.10
27164;DHT22;14685;50.618;7.024;2022-09-01T08:47:14;26.50;86.90
27164;DHT22;14685;50.618;7.024;2022-09-01T08:49:42;26.60;86.90
27164;DHT22;14685;50.618;7.024;2022-09-01T08:57:33;26.90;86.10
27164;DHT22;14685;50.618;7.024;2022-09-01T09:00:00;26.90;85.60
27164;DHT22;14685;50.618;7.024;2022-09-01T09:02:45;26.90;85.30
27164;DHT22;14685;50.618;7.024;2022-09-01T09:11:00;27.10;86.00
27164;DHT22;14685;50.618;7.024;2022-09-01T09:16:23;27.20;84.60
27164;DHT22;14685;50.618;7.024;2022-09-01T09:18:58;27.30;83.80
27164;DHT22;14685;50.618;7.024;2022-09-01T09:21:36;27.40;84.20
27164;DHT22;14685;50.618;7.024;2022-09-01T09:26:52;27.50;83.50
27164;DHT22;14685;50.618;7.024;2022-09-01T09:29:19;27.60;84.30
27164;DHT22;14685;50.618;7.024;2022-09-01T09:32:02;27.60;82.90
27164;DHT22;14685;50.618;7.024;2022-09-01T09:34:33;27.80;83.70
27164;DHT22;14685;50.618;7.024;2022-09-01T09:42:58;27.90;82.20
27164;DHT22;14685;50.618;7.024;2022-09-01T09:45:33;27.90;82.40
27164;DHT22;14685;50.618;7.024;2022-09-01T09:48:05;27.90;82.90
27164;DHT22;14685;50.618;7.024;2022-09-01T09:50:38;27.80;81.70
27164;DHT22;14685;50.618;7.024;2022-09-01T09:53:34;27.70;81.60
27164;DHT22;14685;50.618;7.024;2022-09-01T09:56:19;27.80;82.20
27164;DHT22;14685;50.618;7.024;2022-09-01T09:58:47;27.90;81.70
27164;DHT22;14685;50.618;7.024;2022-09-01T10:01:29;27.90;82.50
27164;DHT22;14685;50.618;7.024;2022-09-01T10:03:58;27.90;81.60
27164;DHT22;14685;50.618;7.024;2022-09-01T10:06:35;27.90;80.90
27164;DHT22;14685;50.618;7.024;2022-09-01T10:09:16;27.90;80.70
27164;DHT22;14685;50.618;7.024;2022-09-01T10:11:59;27.90;82.10
27164;DHT22;14685;50.618;7.024;2022-09-01T10:14:34;27.80;81.00
27164;DHT22;14685;50.618;7.024;2022-09-01T10:17:29;27.70;80.60
27164;DHT22;14685;50.618;7.024;2022-09-01T10:20:10;27.80;81.10
27164;DHT22;14685;50.618;7.024;2022-09-01T10:22:38;27.70;81.50
27164;DHT22;14685;50.618;7.024;2022-09-01T10:25:16;27.60;81.30
27164;DHT22;14685;50.618;7.024;2022-09-01T10:27:48;27.70;82.40
27164;DHT22;14685;50.618;7.024;2022-09-01T10:30:17;27.60;80.50
27164;DHT22;14685;50.618;7.024;2022-09-01T10:32:53;27.50;81.80
27164;DHT22;14685;50.618;7.024;2022-09-01T10:35:26;27.30;81.60
27164;DHT22;14685;50.618;7.024;2022-09-01T10:37:54;27.20;81.70
27164;DHT22;14685;50.618;7.024;2022-09-01T10:45:44;26.90;82.50
27164;DHT22;14685;50.618;7.024;2022-09-01T10:48:31;26.90;83.10
27164;DHT22;14685;50.618;7.024;2022-09-01T10:53:45;26.80;82.80
27164;DHT22;14685;50.618;7.024;2022-09-01T10:56:21;26.90;83.60
27164;DHT22;14685;50.618;7.024;2022-09-01T10:59:09;26.90;84.50
27164;DHT22;14685;50.618;7.024;2022-09-01T11:02:16;26.90;82.70
27164;DHT22;14685;50.618;7.024;2022-09-01T11:10:36;27.20;83.50
27164;DHT22;14685;50.618;7.024;2022-09-01T11:15:53;27.40;80.90
27164;DHT22;14685;50.618;7.024;2022-09-01T11:20:54;27.30;82.10
27164;DHT22;14685;50.618;7.024;2022-09-01T11:23:29;27.20;82.20
27164;DHT22;14685;50.618;7.024;2022-09-01T11:26:02;27.30;81.50
27164;DHT22;14685;50.618;7.024;2022-09-01T11:28:47;27.20;82.90
27164;DHT22;14685;50.618;7.024;2022-09-01T11:31:21;27.10;82.10
27164;DHT22;14685;50.618;7.024;2022-09-01T11:34:14;26.90;81.70
27164;DHT22;14685;50.618;7.024;2022-09-01T11:41:57;26.80;82.10
27164;DHT22;14685;50.618;7.024;2022-09-01T11:47:10;26.60;83.30
27164;DHT22;14685;50.618;7.024;2022-09-01T11:49:47;26.50;84.30
27164;DHT22;14685;50.618;7.024;2022-09-01T11:52:17;26.60;83.70
27164;DHT22;14685;50.618;7.024;2022-09-01T11:54:45;26.60;84.10
27164;DHT22;14685;50.618;7.024;2022-09-01T11:57:31;26.60;83.30
27164;DHT22;14685;50.618;7.024;2022-09-01T12:00:00;26.70;82.60
27164;DHT22;14685;50.618;7.024;2022-09-01T12:02:31;26.70;83.10
27164;DHT22;14685;50.618;7.024;2022-09-01T12:05:43;26.70;82.50
27164;DHT22;14685;50.618;7.024;2022-09-01T12:08:14;26.70;82.20
27164;DHT22;14685;50.618;7.024;2022-09-01T12:10:49;26.80;83.10
27164;DHT22;14685;50.618;7.024;2022-09-01T12:13:18;26.90;81.80
27164;DHT22;14685;50.618;7.024;2022-09-01T12:15:56;26.90;81.20
27164;DHT22;14685;50.618;7.024;2022-09-01T12:18:47;26.90;81.50
27164;DHT22;14685;50.618;7.024;2022-09-01T12:21:40;26.90;81.40
27164;DHT22;14685;50.618;7.024;2022-09-01T12:24:17;27.00;81.10
27164;DHT22;14685;50.618;7.024;2022-09-01T12:26:46;26.90;79.80
27164;DHT22;14685;50.618;7.024;2022-09-01T12:29:14;27.00;80.30
27164;DHT22;14685;50.618;7.024;2022-09-01T12:31:44;27.10;81.80
27164;DHT22;14685;50.618;7.024;2022-09-01T12:37:22;27.30;79.90
27164;DHT22;14685;50.618;7.024;2022-09-01T12:39:52;27.30;79.10
27164;DHT22;14685;50.618;7.024;2022-09-01T12:52:46;27.20;77.90
27164;DHT22;14685;50.618;7.024;2022-09-01T12:55:22;27.30;78.30
27164;DHT22;14685;50.618;7.024;2022-09-01T12:58:09;27.20;75.60
27164;DHT22;14685;50.618;7.024;2022-09-01T13:00:57;27.20;78.00
27164;DHT22;14685;50.618;7.024;2022-09-01T13:03:25;27.10;77.00
27164;DHT22;14685;50.618;7.024;2022-09-01T13:05:54;27.20;78.40
27164;DHT22;14685;50.618;7.024;2022-09-01T13:08:33;27.20;78.30
27164;DHT22;14685;50.618;7.024;2022-09-01T13:11:06;27.20;77.50
27164;DHT22;14685;50.618;7.024;2022-09-01T13:13:34;27.20;76.90
27164;DHT22;14685;50.618;7.024;2022-09-01T13:16:03;27.10;78.00
27164;DHT22;14685;50.618;7.024;2022-09-01T13:18:34;27.10;77.20
27164;DHT22;14685;50.618;7.024;2022-09-01T13:21:21;27.10;76.70
27164;DHT22;14685;50.618;7.024;2022-09-01T13:23:48;27.10;77.00
27164;DHT22;14685;50.618;7.024;2022-09-01T13:26:16;26.90;77.40
27164;DHT22;14685;50.618;7.024;2022-09-01T13:28:44;26.90;77.00
27164;DHT22;14685;50.618;7.024;2022-09-01T13:31:12;26.90;77.40
27164;DHT22;14685;50.618;7.024;2022-09-01T13:33:57;27.00;76.70
27164;DHT22;14685;50.618;7.024;2022-09-01T13:36:43;26.90;76.40
27164;DHT22;14685;50.618;7.024;2022-09-01T13:39:17;27.00;76.70
27164;DHT22;14685;50.618;7.024;2022-09-01T13:41:44;26.80;76.30
27164;DHT22;14685;50.618;7.024;2022-09-01T13:44:13;26.80;76.20
27164;DHT22;14685;50.618;7.024;2022-09-01T13:46:40;26.80;75.50
27164;DHT22;14685;50.618;7.024;2022-09-01T13:49:27;26.90;74.60
27164;DHT22;14685;50.618;7.024;2022-09-01T13:52:14;27.00;75.00
27164;DHT22;14685;50.618;7.024;2022-09-01T13:54:40;27.10;76.70
27164;DHT22;14685;50.618;7.024;2022-09-01T13:57:10;27.10;76.60
27164;DHT22;14685;50.618;7.024;2022-09-01T13:59:37;27.00;76.20
27164;DHT22;14685;50.618;7.024;2022-09-01T14:02:04;26.90;76.60
27164;DHT22;14685;50.618;7.024;2022-09-01T14:04:31;26.90;76.00
27164;DHT22;14685;50.618;7.024;2022-09-01T14:06:58;26.90;76.00
27164;DHT22;14685;50.618;7.024;2022-09-01T14:09:25;26.90;76.30
27164;DHT22;14685;50.618;7.024;2022-09-01T14:11:53;27.00;76.00
27164;DHT22;14685;50.618;7.024;2022-09-01T14:14:21;27.00;75.40
27164;DHT22;14685;50.618;7.024;2022-09-01T14:16:51;26.90;75.40
27164;DHT22;14685;50.618;7.024;2022-09-01T14:19:18;26.90;75.90
27164;DHT22;14685;50.618;7.024;2022-09-01T14:21:45;26.90;76.10
27164;DHT22;14685;50.618;7.024;2022-09-01T14:24:13;26.90;76.70
27164;DHT22;14685;50.618;7.024;2022-09-01T14:26:40;26.90;75.90
27164;DHT22;14685;50.618;7.024;2022-09-01T14:29:08;27.00;74.40
27164;DHT22;14685;50.618;7.024;2022-09-01T14:31:35;27.00;74.10
27164;DHT22;14685;50.618;7.024;2022-09-01T14:34:04;27.00;76.00
27164;DHT22;14685;50.618;7.024;2022-09-01T14:36:32;27.10;74.80
27164;DHT22;14685;50.618;7.024;2022-09-01T14:38:59;27.20;74.90
27164;DHT22;14685;50.618;7.024;2022-09-01T14:41:26;27.20;74.20
27164;DHT22;14685;50.618;7.024;2022-09-01T14:43:54;27.10;74.40
27164;DHT22;14685;50.618;7.024;2022-09-01T14:46:29;27.20;74.10
27164;DHT22;14685;50.618;7.024;2022-09-01T14:48:57;27.20;73.90
27164;DHT22;14685;50.618;7.024;2022-09-01T14:51:26;27.10;73.80
27164;DHT22;14685;50.618;7.024;2022-09-01T14:54:13;27.10;72.20
27164;DHT22;14685;50.618;7.024;2022-09-01T14:56:40;27.10;73.40
27164;DHT22;14685;50.618;7.024;2022-09-01T14:59:07;27.20;73.60
27164;DHT22;14685;50.618;7.024;2022-09-01T15:01:36;27.20;73.00
27164;DHT22;14685;50.618;7.024;2022-09-01T15:04:03;27.20;72.40
27164;DHT22;14685;50.618;7.024;2022-09-01T15:06:30;27.20;73.40
27164;DHT22;14685;50.618;7.024;2022-09-01T15:08:57;27.20;72.50
27164;DHT22;14685;50.618;7.024;2022-09-01T15:11:25;27.10;72.60
27164;DHT22;14685;50.618;7.024;2022-09-01T15:13:53;27.10;71.20
27164;DHT22;14685;50.618;7.024;2022-09-01T15:16:24;27.00;71.40
27164;DHT22;14685;50.618;7.024;2022-09-01T15:18:51;27.00;72.10
27164;DHT22;14685;50.618;7.024;2022-09-01T15:21:27;27.00;71.90
27164;DHT22;14685;50.618;7.024;2022-09-01T15:23:56;26.90;71.40
27164;DHT22;14685;50.618;7.024;2022-09-01T15:26:24;27.00;71.90
27164;DHT22;14685;50.618;7.024;2022-09-01T15:28:51;27.00;72.70
27164;DHT22;14685;50.618;7.024;2022-09-01T15:31:20;26.90;72.30
27164;DHT22;14685;50.618;7.024;2022-09-01T15:34:00;27.00;73.60
27164;DHT22;14685;50.618;7.024;2022-09-01T15:36:28;26.90;72.90
27164;DHT22;14685;50.618;7.024;2022-09-01T15:38:56;26.90;73.60
27164;DHT22;14685;50.618;7.024;2022-09-01T15:41:28;26.90;73.40
27164;DHT22;14685;50.618;7.024;2022-09-01T15:43:56;26.90;72.00
27164;DHT22;14685;50.618;7.024;2022-09-01T15:46:24;26.90;72.30
27164;DHT22;14685;50.618;7.024;2022-09-01T15:48:59;26.90;71.60
27164;DHT22;14685;50.618;7.024;2022-09-01T15:51:32;26.90;71.80
27164;DHT22;14685;50.618;7.024;2022-09-01T15:54:03;26.90;71.80
27164;DHT22;14685;50.618;7.024;2022-09-01T15:56:30;26.90;70.60
27164;DHT22;14685;50.618;7.024;2022-09-01T15:58:58;26.90;69.80
27164;DHT22;14685;50.618;7.024;2022-09-01T16:01:29;26.80;67.90
27164;DHT22;14685;50.618;7.024;2022-09-01T16:03:57;26.80;68.90
27164;DHT22;14685;50.618;7.024;2022-09-01T16:06:24;26.80;68.80
27164;DHT22;14685;50.618;7.024;2022-09-01T16:08:52;26.90;68.70
27164;DHT22;14685;50.618;7.024;2022-09-01T16:11:23;26.90;68.50
27164;DHT22;14685;50.618;7.024;2022-09-01T16:13:52;26.90;67.80
27164;DHT22;14685;50.618;7.024;2022-09-01T16:22:00;26.90;67.00
27164;DHT22;14685;50.618;7.024;2022-09-01T16:24:28;27.00;66.90
27164;DHT22;14685;50.618;7.024;2022-09-01T16:26:55;27.00;66.40
27164;DHT22;14685;50.618;7.024;2022-09-01T16:32:11;26.90;66.00
27164;DHT22;14685;50.618;7.024;2022-09-01T16:34:41;26.90;66.70
27164;DHT22;14685;50.618;7.024;2022-09-01T16:37:27;26.90;65.20
27164;DHT22;14685;50.618;7.024;2022-09-01T16:40:46;26.80;65.90
27164;DHT22;14685;50.618;7.024;2022-09-01T16:55:16;26.80;66.20
27164;DHT22;14685;50.618;7.024;2022-09-01T17:07:09;26.70;65.70
27164;DHT22;14685;50.618;7.024;2022-09-01T17:10:02;26.70;65.70
27164;DHT22;14685;50.618;7.024;2022-09-01T17:12:39;26.80;66.40
27164;DHT22;14685;50.618;7.024;2022-09-01T17:15:10;26.70;66.10
27164;DHT22;14685;50.618;7.024;2022-09-01T17:20:12;26.60;65.90
27164;DHT22;14685;50.618;7.024;2022-09-01T17:22:45;26.60;66.80
27164;DHT22;14685;50.618;7.024;2022-09-01T17:25:24;26.60;67.20
27164;DHT22;14685;50.618;7.024;2022-09-01T17:28:03;26.60;67.30
27164;DHT22;14685;50.618;7.024;2022-09-01T17:30:40;26.60;67.90
27164;DHT22;14685;50.618;7.024;2022-09-01T17:33:21;26.60;68.40
27164;DHT22;14685;50.618;7.024;2022-09-01T17:41:39;26.60;68.00
27164;DHT22;14685;50.618;7.024;2022-09-01T17:47:20;26.60;67.70
27164;DHT22;14685;50.618;7.024;2022-09-01T18:01:09;26.60;68.50
27164;DHT22;14685;50.618;7.024;2022-09-01T18:03:48;26.60;69.20
27164;DHT22;14685;50.618;7.024;2022-09-01T18:08:52;26.50;68.70
27164;DHT22;14685;50.618;7.024;2022-09-01T18:11:39;26.40;68.90
27164;DHT22;14685;50.618;7.024;2022-09-01T18:14:29;26.40;68.70
27164;DHT22;14685;50.618;7.024;2022-09-01T18:17:03;26.40;69.10
27164;DHT22;14685;50.618;7.024;2022-09-01T18:19:42;26.40;70.10